Time;durP1;ratioP1;P1;durP2;ratioP2;P2;SDS_P1;SDS_P2;PMS_P1;PMS_P2;Temp;Humidity;BMP_temperature;BMP_pressure;BME280_temperature;BME280_humidity;BME280_pressure;Samples;Min_cycle;Max_cycle;Signal;HPM_P1;HPM_P2
2021/12/08 00:00:41;;;;;;;48.28;21.25;;;1.00;94.60;;;;;;5075372;28;20028;-73
2021/12/08 00:03:11;;;;;;;54.03;23.30;;;1.00;94.60;;;;;;5093386;28;20065;-73
2021/12/08 00:05:44;;;;;;;53.80;21.58;;;1.00;94.80;;;;;;5075041;28;20065;-73
2021/12/08 00:08:13;;;;;;;55.95;22.27;;;1.00;94.80;;;;;;5092158;28;20063;-72
2021/12/08 00:13:01;;;;;;;52.58;23.15;;;1.00;94.80;;;;;;5092118;28;20032;-73
2021/12/08 00:13:38;;;;;;;53.10;22.42;;;1.00;94.80;;;;;;5093223;28;20025;-73
2021/12/08 00:16:13;;;;;;;52.13;21.05;;;1.00;94.50;;;;;;5093374;28;20032;-73
2021/12/08 00:19:03;;;;;;;52.75;21.05;;;1.00;94.50;;;;;;5093339;28;20095;-74
2021/12/08 00:21:29;;;;;;;60.17;21.67;;;1.00;94.70;;;;;;5093136;28;20149;-73
2021/12/08 00:23:55;;;;;;;46.03;21.05;;;1.00;94.20;;;;;;5093313;28;20046;-73
2021/12/08 00:26:22;;;;;;;52.10;22.73;;;0.90;94.20;;;;;;5093310;28;20473;-73
2021/12/08 00:28:49;;;;;;;52.42;21.50;;;1.00;94.20;;;;;;5090841;28;20020;-73
2021/12/08 00:31:14;;;;;;;55.05;23.20;;;0.90;94.00;;;;;;5091824;28;20020;-73
2021/12/08 00:33:41;;;;;;;52.00;22.65;;;0.90;94.00;;;;;;5093073;28;20024;-74
2021/12/08 00:36:38;;;;;;;54.90;23.77;;;0.90;94.00;;;;;;5093020;28;20042;-73
2021/12/08 00:39:05;;;;;;;56.22;23.75;;;1.00;94.20;;;;;;5092985;28;20024;-74
2021/12/08 00:41:31;;;;;;;58.15;25.08;;;1.00;94.30;;;;;;5092860;28;20431;-73
2021/12/08 00:44:00;;;;;;;62.28;23.98;;;1.00;94.10;;;;;;5092928;28;20038;-74
2021/12/08 00:46:28;;;;;;;59.22;23.90;;;1.00;94.10;;;;;;5091613;28;20025;-73
2021/12/08 00:48:55;;;;;;;63.40;25.73;;;1.00;94.20;;;;;;5092540;28;20500;-73
2021/12/08 00:51:22;;;;;;;66.40;26.30;;;1.00;94.20;;;;;;5091522;28;20024;-73
2021/12/08 00:53:48;;;;;;;54.92;25.23;;;1.10;94.10;;;;;;5093492;28;20039;-73
2021/12/08 00:56:14;;;;;;;64.22;26.52;;;1.10;94.10;;;;;;5091435;28;20469;-74
2021/12/08 00:58:41;;;;;;;58.25;24.40;;;1.10;94.10;;;;;;5075005;28;20426;-73
2021/12/08 01:01:08;;;;;;;78.00;28.90;;;1.10;94.00;;;;;;5093043;28;20024;-72
2021/12/08 01:03:35;;;;;;;62.28;27.33;;;1.10;94.00;;;;;;5091933;28;20020;-72
2021/12/08 01:06:02;;;;;;;75.07;27.23;;;1.10;94.20;;;;;;5091934;28;20261;-73
2021/12/08 01:08:29;;;;;;;82.47;28.67;;;1.10;94.20;;;;;;5091782;28;20385;-72
2021/12/08 01:10:59;;;;;;;74.63;30.13;;;1.10;93.80;;;;;;5091423;28;20016;-73
2021/12/08 01:13:33;;;;;;;71.18;26.23;;;1.10;94.00;;;;;;5091350;28;20073;-72
2021/12/08 01:15:59;;;;;;;74.80;27.85;;;1.10;94.10;;;;;;5092928;28;20028;-73
2021/12/08 01:18:28;;;;;;;75.20;29.05;;;1.10;94.00;;;;;;5093278;28;20582;-73
2021/12/08 01:20:56;;;;;;;75.00;27.73;;;1.10;94.10;;;;;;5095101;28;20435;-71
2021/12/08 01:23:31;;;;;;;66.72;27.73;;;1.10;94.20;;;;;;5095039;28;20032;-73
2021/12/08 01:25:58;;;;;;;73.20;27.27;;;1.10;94.00;;;;;;5096186;28;20024;-72
2021/12/08 01:28:25;;;;;;;62.65;27.70;;;1.10;94.20;;;;;;5096088;28;20020;-73
2021/12/08 01:31:00;;;;;;;65.18;27.25;;;1.10;94.40;;;;;;5078033;28;20039;-73
2021/12/08 01:33:31;;;;;;;70.18;26.15;;;1.10;94.50;;;;;;5095250;28;20020;-74
2021/12/08 01:36:04;;;;;;;70.82;25.52;;;1.00;94.50;;;;;;5094951;28;20055;-73
2021/12/08 01:38:31;;;;;;;65.32;26.23;;;1.00;94.70;;;;;;5095917;28;20458;-74
2021/12/08 01:40:56;;;;;;;65.35;26.60;;;1.00;94.90;;;;;;5095847;28;20020;-73
2021/12/08 01:43:29;;;;;;;65.57;25.75;;;1.10;94.90;;;;;;5094179;28;20055;-72
2021/12/08 01:46:05;;;;;;;66.28;25.45;;;1.10;94.80;;;;;;5078398;28;20024;-72
2021/12/08 01:48:34;;;;;;;65.00;26.88;;;1.10;94.90;;;;;;5077850;28;20119;-72
2021/12/08 01:51:13;;;;;;;66.13;27.50;;;1.10;94.70;;;;;;5095904;28;20027;-72
2021/12/08 01:53:47;;;;;;;60.70;28.58;;;1.20;94.70;;;;;;5095794;28;20080;-71
2021/12/08 01:56:22;;;;;;;66.70;27.48;;;1.20;94.50;;;;;;5095663;28;20027;-73
2021/12/08 01:58:50;;;;;;;60.22;25.92;;;1.20;94.50;;;;;;5095982;28;20016;-72
2021/12/08 02:01:24;;;;;;;59.17;24.98;;;1.10;94.60;;;;;;5094320;28;20028;-72
2021/12/08 02:04:06;;;;;;;61.05;25.33;;;1.20;94.50;;;;;;5077904;28;20031;-72
2021/12/08 02:06:36;;;;;;;65.85;26.33;;;1.10;94.60;;;;;;5095770;28;20028;-72
2021/12/08 02:09:06;;;;;;;62.42;25.88;;;1.10;94.70;;;;;;5077297;28;20039;-72
2021/12/08 02:11:34;;;;;;;66.65;26.13;;;1.10;94.80;;;;;;5095531;28;20032;-73
2021/12/08 02:14:14;;;;;;;66.85;26.58;;;1.10;94.80;;;;;;5095136;28;20028;-73
2021/12/08 02:16:40;;;;;;;70.18;26.60;;;1.10;95.00;;;;;;5077000;28;20040;-72
2021/12/08 02:19:07;;;;;;;63.55;26.70;;;1.10;94.70;;;;;;5093875;28;20028;-73
2021/12/08 02:21:39;;;;;;;72.07;28.75;;;1.10;94.60;;;;;;5093779;28;20032;-73
2021/12/08 02:24:13;;;;;;;61.42;26.65;;;1.10;94.80;;;;;;5093692;28;20049;-74
2021/12/08 02:26:45;;;;;;;65.57;27.45;;;1.10;95.00;;;;;;5094048;28;20362;-73
2021/12/08 02:29:37;;;;;;;59.67;24.55;;;1.00;95.10;;;;;;5076637;28;20030;-74
2021/12/08 02:48:37;;;;;;;75.45;29.23;;;1.10;95.50;;;;;;5095015;28;20038;-73
2021/12/08 02:51:05;;;;;;;72.15;29.27;;;1.10;95.60;;;;;;5076558;28;20380;-72
2021/12/08 02:53:32;;;;;;;66.00;27.30;;;1.10;96.00;;;;;;5094464;28;20024;-74
2021/12/08 02:56:06;;;;;;;64.43;27.80;;;1.10;95.70;;;;;;5093140;28;20039;-73
2021/12/08 02:58:34;;;;;;;69.78;27.88;;;1.10;95.80;;;;;;5094547;28;20073;-73
2021/12/08 03:01:04;;;;;;;74.38;27.98;;;1.10;95.90;;;;;;5092992;28;20016;-73
2021/12/08 03:03:31;;;;;;;69.93;27.83;;;1.10;95.80;;;;;;5076253;28;20111;-73
2021/12/08 03:05:57;;;;;;;67.55;26.42;;;1.10;95.80;;;;;;5094281;28;20373;-73
2021/12/08 03:08:25;;;;;;;71.40;27.85;;;1.10;95.80;;;;;;5092895;28;20036;-73
2021/12/08 03:10:51;;;;;;;60.78;27.52;;;1.10;95.80;;;;;;5092832;28;20017;-72
2021/12/08 03:13:18;;;;;;;70.90;27.40;;;1.10;96.20;;;;;;5094092;28;20028;-73
2021/12/08 03:15:44;;;;;;;60.53;25.33;;;1.10;96.00;;;;;;5092844;28;20022;-73
2021/12/08 03:18:13;;;;;;;66.43;27.58;;;1.20;95.90;;;;;;5092683;28;20061;-73
2021/12/08 03:20:44;;;;;;;62.25;27.42;;;1.20;95.90;;;;;;5094093;28;20039;-73
2021/12/08 03:23:32;;;;;;;71.13;27.17;;;1.20;95.80;;;;;;5092927;28;20027;-73
2021/12/08 03:26:02;;;;;;;70.18;27.30;;;1.10;95.70;;;;;;5092927;28;20103;-73
2021/12/08 03:28:34;;;;;;;66.90;27.08;;;1.10;95.60;;;;;;5092472;28;20027;-74
2021/12/08 03:31:10;;;;;;;63.78;29.67;;;1.10;95.50;;;;;;5092598;28;20397;-72
2021/12/08 03:33:50;;;;;;;72.25;28.10;;;1.00;95.30;;;;;;5093070;28;20024;-74
2021/12/08 03:36:17;;;;;;;76.93;28.17;;;1.00;95.10;;;;;;5092451;28;20066;-74
2021/12/08 03:38:45;;;;;;;72.00;27.88;;;0.90;95.00;;;;;;5092411;28;20028;-72
2021/12/08 03:41:11;;;;;;;76.68;28.90;;;0.90;95.30;;;;;;5092828;28;20028;-73
2021/12/08 03:43:39;;;;;;;75.65;28.15;;;0.90;95.30;;;;;;5093223;28;20489;-72
2021/12/08 03:46:11;;;;;;;71.57;26.92;;;0.90;95.40;;;;;;5092282;28;20058;-73
2021/12/08 03:48:45;;;;;;;;;;;0.80;95.40;;;;;;5092657;28;20033;-73
2021/12/08 03:51:12;;;;;;;69.35;29.35;;;0.80;95.60;;;;;;5090261;28;20343;-72
2021/12/08 03:53:58;;;;;;;80.10;30.38;;;0.80;95.70;;;;;;5093524;28;20096;-74
2021/12/08 03:56:24;;;;;;;76.65;30.60;;;0.80;95.80;;;;;;5093511;28;20495;-73
2021/12/08 03:58:52;;;;;;;75.18;28.25;;;0.80;96.00;;;;;;5092104;28;20024;-73
2021/12/08 04:01:20;;;;;;;76.05;27.65;;;0.80;96.10;;;;;;5093381;28;20111;-73
2021/12/08 04:03:50;;;;;;;64.00;24.75;;;0.90;96.10;;;;;;5091901;28;20046;-73
2021/12/08 04:06:29;;;;;;;77.32;27.63;;;0.90;96.00;;;;;;5092033;28;20388;-73
2021/12/08 04:08:57;;;;;;;70.72;26.17;;;0.90;95.50;;;;;;5076815;28;20016;-72
2021/12/08 04:11:25;;;;;;;72.18;26.13;;;0.90;95.50;;;;;;5075409;28;20039;-72
2021/12/08 04:14:01;;;;;;;69.63;26.48;;;0.90;95.30;;;;;;5075238;28;20480;-73
2021/12/08 04:16:32;;;;;;;64.15;25.58;;;0.80;95.30;;;;;;5093288;28;20414;-73
2021/12/08 04:19:00;;;;;;;81.50;28.33;;;0.80;95.80;;;;;;5092458;28;20028;-74
2021/12/08 04:21:27;;;;;;;67.05;25.80;;;0.80;95.70;;;;;;5092247;28;20119;-73
2021/12/08 04:23:54;;;;;;;65.82;26.75;;;0.80;95.80;;;;;;5058424;28;20032;-73
2021/12/08 04:26:34;;;;;;;70.97;27.20;;;0.80;95.70;;;;;;5093258;28;20052;-72
2021/12/08 04:29:03;;;;;;;67.78;26.60;;;0.90;95.80;;;;;;5093118;28;20532;-73
2021/12/08 04:31:35;;;;;;;62.95;28.13;;;0.80;95.80;;;;;;5075240;28;20040;-72
2021/12/08 04:34:06;;;;;;;70.55;26.60;;;0.80;95.80;;;;;;5091878;28;20028;-72
2021/12/08 04:36:41;;;;;;;73.35;28.17;;;0.80;95.70;;;;;;5093164;28;20034;-73
2021/12/08 04:39:15;;;;;;;68.68;27.40;;;0.80;95.70;;;;;;5060025;28;20035;-73
2021/12/08 04:41:48;;;;;;;75.72;27.65;;;0.80;96.00;;;;;;5092751;28;20020;-73
2021/12/08 04:44:41;;;;;;;80.15;27.55;;;0.80;96.30;;;;;;5093075;28;20354;-73
2021/12/08 04:53:31;;;;;;;66.72;26.48;;;0.90;96.00;;;;;;5094339;28;20042;-72
2021/12/08 05:09:47;;;;;;;82.35;27.15;;;0.80;96.40;;;;;;5095546;28;20375;-72
2021/12/08 05:12:23;;;;;;;76.68;27.85;;;0.90;96.30;;;;;;5096578;28;20028;-73
2021/12/08 05:15:22;;;;;;;80.43;27.20;;;0.80;96.40;;;;;;5096464;28;20099;-73
2021/12/08 05:18:02;;;;;;;78.38;28.75;;;0.80;96.40;;;;;;5096350;28;20032;-73
2021/12/08 05:20:43;;;;;;;78.88;26.10;;;0.80;96.50;;;;;;5095073;28;20380;-73
2021/12/08 05:23:34;;;;;;;71.88;26.33;;;0.80;96.30;;;;;;5096158;28;20107;-73
2021/12/08 05:26:07;;;;;;;68.72;24.98;;;0.90;96.10;;;;;;5095713;28;20093;-73
2021/12/08 05:28:35;;;;;;;69.32;24.35;;;0.80;95.90;;;;;;5078670;28;20028;-72
2021/12/08 05:31:11;;;;;;;67.50;25.05;;;0.80;95.60;;;;;;5096394;28;20138;-72
2021/12/08 05:33:42;;;;;;;68.63;25.33;;;0.80;95.50;;;;;;5095948;28;20020;-72
2021/12/08 05:36:09;;;;;;;66.43;25.50;;;0.80;95.40;;;;;;5095992;28;20082;-72
2021/12/08 05:38:37;;;;;;;65.20;25.33;;;0.80;95.40;;;;;;5094581;28;20016;-72
2021/12/08 05:41:13;;;;;;;67.18;25.65;;;0.80;95.20;;;;;;5061188;28;20032;-72
2021/12/08 05:43:40;;;;;;;75.43;26.70;;;0.80;95.10;;;;;;5094148;28;20040;-72
2021/12/08 05:46:08;;;;;;;67.57;24.98;;;0.80;95.20;;;;;;5094572;28;20024;-73
2021/12/08 05:48:35;;;;;;;61.33;26.15;;;0.90;95.30;;;;;;5094347;28;20453;-73
2021/12/08 05:51:14;;;;;;;59.17;24.77;;;0.80;94.70;;;;;;5094184;28;20473;-73
2021/12/08 05:53:47;;;;;;;62.58;25.20;;;0.80;94.90;;;;;;5094271;28;20103;-73
2021/12/08 05:56:14;;;;;;;66.25;24.33;;;0.80;95.30;;;;;;5075055;28;20064;-73
2021/12/08 05:58:42;;;;;;;65.13;25.95;;;0.80;94.80;;;;;;5052990;28;20470;-73
2021/12/08 06:01:26;;;;;;;60.00;23.15;;;0.80;94.80;;;;;;5073761;28;20036;-73
2021/12/08 06:03:52;;;;;;;71.55;25.13;;;0.80;94.90;;;;;;5090173;28;20576;-74
2021/12/08 06:06:21;;;;;;;68.97;25.75;;;0.80;94.80;;;;;;5073737;28;20154;-74
2021/12/08 06:08:51;;;;;;;60.95;25.35;;;0.80;94.60;;;;;;5089146;28;20020;-74
2021/12/08 06:11:17;;;;;;;65.53;25.88;;;0.80;94.40;;;;;;5093718;28;20034;-74
2021/12/08 06:13:46;;;;;;;61.08;26.30;;;0.80;94.50;;;;;;5076883;28;20104;-74
2021/12/08 06:16:15;;;;;;;61.05;25.50;;;0.80;94.60;;;;;;5077105;28;20028;-74
2021/12/08 06:18:45;;;;;;;57.45;25.63;;;0.80;94.50;;;;;;5094918;28;20012;-75
2021/12/08 06:21:20;;;;;;;61.25;25.88;;;0.80;94.60;;;;;;5093689;28;20066;-74
2021/12/08 06:23:47;;;;;;;61.97;24.73;;;0.80;94.70;;;;;;5059877;28;20110;-74
2021/12/08 06:26:17;;;;;;;60.50;24.10;;;0.70;94.60;;;;;;5093405;28;20047;-74
2021/12/08 06:28:44;;;;;;;62.40;25.23;;;0.70;94.60;;;;;;5093519;28;20081;-75
2021/12/08 06:31:11;;;;;;;58.60;25.55;;;0.70;94.40;;;;;;5076615;28;20038;-75
2021/12/08 06:33:37;;;;;;;60.50;24.08;;;0.70;94.60;;;;;;5093502;28;20025;-75
2021/12/08 06:36:11;;;;;;;75.70;30.35;;;0.80;94.40;;;;;;5075167;28;20032;-74
2021/12/08 06:38:40;;;;;;;65.65;24.20;;;0.80;94.50;;;;;;5074486;28;20078;-76
2021/12/08 06:41:11;;;;;;;66.60;26.42;;;0.80;94.50;;;;;;5073142;28;20048;-75
2021/12/08 06:43:47;;;;;;;65.65;26.55;;;0.80;94.40;;;;;;5073710;28;20132;-80
2021/12/08 06:46:28;;;;;;;69.47;25.40;;;0.90;94.10;;;;;;5074469;28;20032;-80
2021/12/08 06:48:57;;;;;;;62.42;26.33;;;0.90;93.80;;;;;;5072828;28;20021;-77
2021/12/08 06:51:35;;;;;;;64.63;26.65;;;0.90;93.60;;;;;;5077924;28;20036;-78
2021/12/08 06:54:07;;;;;;;61.97;25.65;;;0.90;93.50;;;;;;5078152;28;20056;-81
2021/12/08 06:56:40;;;;;;;70.70;26.70;;;0.90;93.60;;;;;;5077126;28;20478;-80
2021/12/08 06:59:30;;;;;;;67.85;27.08;;;0.90;93.50;;;;;;5060578;28;20063;-80
2021/12/08 07:02:20;;;;;;;71.85;27.17;;;0.90;93.40;;;;;;5092747;28;20031;-82
2021/12/08 07:05:29;;;;;;;68.43;29.67;;;0.80;93.50;;;;;;5093883;28;20035;-78
2021/12/08 07:07:44;;;;;;;65.45;28.02;;;0.80;93.60;;;;;;5092310;28;20024;-80
2021/12/08 07:10:28;;;;;;;75.95;29.05;;;0.80;93.80;;;;;;5076603;28;20049;-80
2021/12/08 07:13:08;;;;;;;68.85;29.00;;;0.90;93.80;;;;;;5076595;28;20024;-77
2021/12/08 07:15:50;;;;;;;76.65;28.02;;;0.90;94.20;;;;;;5074036;28;20032;-75
2021/12/08 07:18:53;;;;;;;78.97;29.65;;;0.90;93.90;;;;;;5072258;28;20373;-77
2021/12/08 07:21:20;;;;;;;;;;;0.90;94.10;;;;;;5074443;28;20493;-76
2021/12/08 07:23:52;;;;;;;63.30;25.08;;;0.90;93.50;;;;;;5072132;28;19913;-77
2021/12/08 07:26:26;;;;;;;60.35;25.65;;;0.90;93.30;;;;;;5056078;28;20032;-78
2021/12/08 07:28:55;;;;;;;75.00;28.45;;;0.80;93.10;;;;;;5073509;28;20548;-78
2021/12/08 07:31:36;;;;;;;68.22;26.65;;;0.80;93.20;;;;;;5070996;28;20486;-78
2021/12/08 07:34:07;;;;;;;83.40;30.27;;;0.80;93.30;;;;;;5093431;28;20027;-77
2021/12/08 07:36:38;;;;;;;63.05;26.00;;;0.90;93.50;;;;;;5092537;28;20273;-77
2021/12/08 07:39:09;;;;;;;76.00;27.00;;;0.90;92.70;;;;;;5093788;28;20054;-79
2021/12/08 07:41:40;;;;;;;70.88;26.50;;;0.90;92.60;;;;;;5092367;28;20020;-79
2021/12/08 07:44:12;;;;;;;64.63;25.33;;;0.90;92.90;;;;;;5093791;28;20077;-81
2021/12/08 07:47:03;;;;;;;73.03;28.95;;;0.80;93.00;;;;;;5092908;28;20115;-77
2021/12/08 07:49:41;;;;;;;57.15;24.75;;;0.80;93.10;;;;;;5092346;28;20024;-81
2021/12/08 07:52:21;;;;;;;65.75;24.27;;;0.80;93.10;;;;;;5095837;28;20099;-80
2021/12/08 07:54:49;;;;;;;65.72;24.15;;;0.80;93.00;;;;;;5091210;28;20466;-79
2021/12/08 07:57:21;;;;;;;62.92;23.75;;;0.80;93.10;;;;;;5093075;28;20434;-81
2021/12/08 07:59:52;;;;;;;58.65;23.15;;;0.90;92.80;;;;;;5093465;28;20047;-81
2021/12/08 08:02:27;;;;;;;;;;;0.90;92.50;;;;;;5093500;28;20024;-81
2021/12/08 08:04:58;;;;;;;52.47;21.42;;;1.00;92.40;;;;;;5093349;28;20006;-81
2021/12/08 08:07:25;;;;;;;49.75;21.35;;;1.00;92.10;;;;;;5092189;28;20417;-79
2021/12/08 08:10:03;;;;;;;42.95;18.13;;;1.10;91.50;;;;;;5091815;28;20028;-82
2021/12/08 08:12:33;;;;;;;43.28;18.60;;;1.10;91.10;;;;;;5093127;28;20044;-79
2021/12/08 08:15:20;;;;;;;48.00;19.30;;;1.10;90.60;;;;;;5092349;28;20025;-79
2021/12/08 08:17:51;;;;;;;42.60;17.95;;;1.00;90.40;;;;;;5099767;28;20103;-78
2021/12/08 08:20:36;;;;;;;40.38;16.90;;;0.90;90.40;;;;;;5112458;28;20028;-79
2021/12/08 08:23:04;;;;;;;36.05;15.50;;;0.90;90.30;;;;;;5111986;28;20122;-79
2021/12/08 08:25:35;;;;;;;32.95;15.40;;;0.90;90.20;;;;;;5112025;28;20430;-78
2021/12/08 08:28:02;;;;;;;37.13;15.57;;;0.90;90.30;;;;;;5098038;28;20020;-79
2021/12/08 08:30:34;;;;;;;44.80;17.92;;;0.90;90.30;;;;;;5116537;28;20046;-82
2021/12/08 08:33:00;;;;;;;;;;;0.90;90.30;;;;;;5116622;28;20032;-81
2021/12/08 08:35:47;;;;;;;42.05;18.27;;;1.00;90.50;;;;;;5116487;28;19912;-82
2021/12/08 08:38:21;;;;;;;46.10;17.20;;;1.10;90.60;;;;;;5117544;28;20503;-76
2021/12/08 08:41:12;;;;;;;41.13;16.98;;;1.20;90.40;;;;;;5119759;28;20337;-80
2021/12/08 08:43:38;;;;;;;45.97;19.40;;;1.20;90.00;;;;;;5115926;28;20070;-81
2021/12/08 08:46:14;;;;;;;41.08;17.55;;;1.30;89.30;;;;;;5117731;28;20084;-78
2021/12/08 08:48:48;;;;;;;49.53;21.30;;;1.20;89.60;;;;;;5116453;28;20046;-75
2021/12/08 08:51:33;;;;;;;47.33;19.38;;;1.20;89.60;;;;;;5117582;28;20023;-75
2021/12/08 08:54:04;;;;;;;48.78;20.25;;;1.20;89.50;;;;;;5117606;28;20031;-80
2021/12/08 08:56:42;;;;;;;55.17;19.80;;;1.10;89.70;;;;;;5117990;28;20024;-77
2021/12/08 08:59:19;;;;;;;41.92;18.83;;;1.10;89.90;;;;;;5117877;28;20024;-78
2021/12/08 09:01:49;;;;;;;51.25;20.35;;;1.00;90.10;;;;;;5116297;28;20031;-77
2021/12/08 09:04:20;;;;;;;53.92;20.15;;;1.00;90.30;;;;;;5116040;28;20055;-76
2021/12/08 09:06:51;;;;;;;50.77;22.13;;;1.00;90.50;;;;;;5117215;28;20034;-75
2021/12/08 09:09:30;;;;;;;51.88;22.42;;;1.00;90.70;;;;;;5099397;28;20500;-77
2021/12/08 09:12:38;;;;;;;49.90;21.08;;;1.10;91.00;;;;;;5087821;28;20025;-76
2021/12/08 09:15:24;;;;;;;53.75;23.27;;;1.00;90.30;;;;;;5076040;28;20032;-76
2021/12/08 09:17:59;;;;;;;48.80;20.02;;;1.00;90.30;;;;;;5079143;28;20028;-76
2021/12/08 09:20:57;;;;;;;48.03;19.63;;;1.00;90.40;;;;;;5076494;28;20067;-77
2021/12/08 09:23:35;;;;;;;59.17;21.75;;;0.90;90.30;;;;;;5080226;28;20032;-74
2021/12/08 09:26:06;;;;;;;48.45;19.60;;;0.90;90.70;;;;;;5099508;28;20031;-75
2021/12/08 09:28:37;;;;;;;47.73;19.70;;;0.90;91.20;;;;;;5096459;28;20020;-77
2021/12/08 09:31:07;;;;;;;51.30;20.65;;;0.90;90.50;;;;;;5106025;28;20264;-76
2021/12/08 09:33:39;;;;;;;52.08;20.98;;;0.90;90.70;;;;;;5118013;28;20418;-76
2021/12/08 09:36:13;;;;;;;50.05;22.15;;;0.90;90.80;;;;;;5116223;28;20055;-78
2021/12/08 09:38:53;;;;;;;57.95;21.45;;;0.90;91.00;;;;;;5113645;28;20051;-74
2021/12/08 09:41:33;;;;;;;61.92;22.73;;;0.90;91.20;;;;;;5116442;28;20024;-74
2021/12/08 09:44:11;;;;;;;54.42;23.88;;;0.90;91.10;;;;;;5114781;28;20111;-76
2021/12/08 09:46:44;;;;;;;53.80;21.48;;;0.90;91.20;;;;;;5114966;28;20148;-77
2021/12/08 09:49:26;;;;;;;57.28;24.27;;;0.80;91.40;;;;;;5117162;28;20380;-73
2021/12/08 09:51:54;;;;;;;52.28;21.95;;;0.90;91.50;;;;;;5118691;27;20016;-75
2021/12/08 09:54:20;;;;;;;57.95;24.85;;;0.90;91.20;;;;;;5117288;28;20076;-77
2021/12/08 09:56:48;;;;;;;51.88;22.38;;;0.90;90.90;;;;;;5118343;28;20069;-79
2021/12/08 09:59:14;;;;;;;63.80;23.73;;;0.80;90.80;;;;;;5120793;28;20106;-79
2021/12/08 10:01:43;;;;;;;57.22;22.05;;;0.80;91.00;;;;;;5117548;28;20061;-76
2021/12/08 10:04:12;;;;;;;53.40;22.33;;;0.70;91.20;;;;;;5116195;28;20023;-77
2021/12/08 10:06:42;;;;;;;55.88;24.25;;;0.70;91.40;;;;;;5109042;28;20020;-75
2021/12/08 10:09:11;;;;;;;63.05;23.85;;;0.70;91.80;;;;;;5094002;28;20020;-75
2021/12/08 10:11:42;;;;;;;49.40;22.20;;;0.70;91.90;;;;;;5094157;28;20020;-76
2021/12/08 10:14:11;;;;;;;;;;;0.70;91.80;;;;;;5093882;28;20135;-75
2021/12/08 10:16:50;;;;;;;51.88;22.20;;;0.70;91.90;;;;;;5094523;28;19947;-75
2021/12/08 10:19:17;;;;;;;62.95;23.67;;;0.70;92.10;;;;;;5094696;28;20031;-75
2021/12/08 10:21:46;;;;;;;55.28;23.20;;;0.70;92.00;;;;;;5076098;28;20050;-74
2021/12/08 10:24:27;;;;;;;55.90;23.27;;;0.70;91.90;;;;;;5092444;28;20024;-78
2021/12/08 10:27:02;;;;;;;58.23;25.10;;;0.70;91.90;;;;;;5093871;28;20028;-81
2021/12/08 10:29:30;;;;;;;59.75;23.92;;;0.60;92.20;;;;;;5092669;28;20269;-73
2021/12/08 10:32:00;;;;;;;62.55;24.15;;;0.60;92.30;;;;;;5093694;28;20020;-75
2021/12/08 10:34:46;;;;;;;66.55;26.73;;;0.60;92.20;;;;;;5073887;28;20033;-75
2021/12/08 10:37:19;;;;;;;68.15;25.92;;;0.70;91.90;;;;;;5092924;28;20032;-75
2021/12/08 10:39:52;;;;;;;68.82;28.83;;;0.70;92.00;;;;;;5094417;28;20035;-74
2021/12/08 10:42:22;;;;;;;64.50;26.70;;;0.70;92.20;;;;;;5093147;28;20431;-77
2021/12/08 10:45:10;;;;;;;73.10;26.17;;;0.70;92.10;;;;;;5094810;28;20020;-76
2021/12/08 10:47:50;;;;;;;69.93;27.38;;;0.70;91.90;;;;;;5094523;28;20028;-77
2021/12/08 10:56:24;;;;;;;71.28;31.27;;;0.60;92.10;;;;;;5093745;28;20133;-79
2021/12/08 10:58:57;;;;;;;75.97;29.77;;;0.70;92.20;;;;;;5093969;28;20127;-79
2021/12/08 11:01:25;;;;;;;80.45;30.10;;;0.60;92.10;;;;;;5092596;28;20099;-76
2021/12/08 11:04:00;;;;;;;72.47;31.52;;;0.60;92.20;;;;;;5094131;28;20115;-75
2021/12/08 11:06:30;;;;;;;72.07;28.98;;;0.60;92.30;;;;;;5096925;28;20334;-78
2021/12/08 11:08:57;;;;;;;72.88;28.48;;;0.60;92.10;;;;;;5096487;28;20112;-80
2021/12/08 11:11:28;;;;;;;70.72;30.45;;;0.60;92.10;;;;;;5114985;28;20012;-78
2021/12/08 11:14:05;;;;;;;75.97;28.88;;;0.60;92.10;;;;;;5098396;28;20032;-78
2021/12/08 11:16:39;;;;;;;70.38;28.42;;;0.60;92.10;;;;;;5113455;28;20028;-76
2021/12/08 11:19:13;;;;;;;65.10;25.50;;;0.70;92.00;;;;;;5120516;28;20062;-76
2021/12/08 11:21:57;;;;;;;55.67;23.92;;;0.70;92.10;;;;;;5115523;28;20020;-77
2021/12/08 11:24:35;;;;;;;65.10;25.27;;;0.60;91.90;;;;;;5113995;28;20035;-77
2021/12/08 11:27:06;;;;;;;61.58;25.85;;;0.50;92.10;;;;;;5116608;28;20089;-76
2021/12/08 11:29:38;;;;;;;64.00;23.55;;;0.60;92.20;;;;;;5117290;28;20031;-76
2021/12/08 11:32:09;;;;;;;53.75;23.98;;;0.60;92.20;;;;;;5119408;28;20020;-75
2021/12/08 11:34:44;;;;;;;56.90;25.02;;;0.60;92.20;;;;;;5114527;28;20024;-78
2021/12/08 11:37:21;;;;;;;60.60;24.80;;;0.60;92.10;;;;;;5114340;28;20073;-80
2021/12/08 11:39:59;;;;;;;63.03;23.95;;;0.60;91.90;;;;;;5112300;28;20053;-79
2021/12/08 11:42:30;;;;;;;64.03;26.20;;;0.60;92.00;;;;;;5114848;28;20058;-78
2021/12/08 11:44:58;;;;;;;70.80;27.97;;;0.60;92.20;;;;;;5116558;28;20452;-78
2021/12/08 11:47:34;;;;;;;49.95;24.13;;;0.60;92.30;;;;;;5117979;28;20023;-79
2021/12/08 11:50:12;;;;;;;62.53;24.58;;;0.70;92.30;;;;;;5121150;28;20476;-78
2021/12/08 11:52:38;;;;;;;64.85;24.92;;;0.70;92.10;;;;;;5114992;28;20024;-78
2021/12/08 11:55:09;;;;;;;57.53;26.35;;;0.70;92.00;;;;;;5123432;28;20034;-79
2021/12/08 11:57:44;;;;;;;58.58;25.50;;;0.80;92.10;;;;;;5121646;28;20118;-77
2021/12/08 12:00:15;;;;;;;64.57;25.55;;;0.80;92.00;;;;;;5114948;28;20016;-78
2021/12/08 12:02:56;;;;;;;61.13;25.48;;;0.80;91.80;;;;;;5112163;28;20034;-77
2021/12/08 12:05:26;;;;;;;57.30;25.60;;;0.80;91.50;;;;;;5116974;28;20019;-75
2021/12/08 12:07:54;;;;;;;62.58;24.27;;;0.80;91.50;;;;;;5098512;28;20028;-77
2021/12/08 12:10:23;;;;;;;58.72;23.48;;;0.80;91.50;;;;;;5093465;28;20871;-75
2021/12/08 12:12:50;;;;;;;55.60;24.38;;;0.80;91.60;;;;;;5087035;28;20074;-73
2021/12/08 12:15:18;;;;;;;54.70;24.20;;;0.80;91.80;;;;;;5085793;28;20133;-73
2021/12/08 12:17:47;;;;;;;58.85;24.33;;;0.80;91.60;;;;;;5092595;28;20020;-76
2021/12/08 12:20:20;;;;;;;47.85;22.42;;;0.80;91.60;;;;;;5092773;28;20373;-74
2021/12/08 12:23:08;;;;;;;51.97;23.27;;;0.80;91.30;;;;;;5092753;28;20552;-74
2021/12/08 12:25:40;;;;;;;54.38;22.75;;;0.90;91.30;;;;;;5091827;28;20030;-74
2021/12/08 12:28:46;;;;;;;59.15;24.13;;;0.80;91.00;;;;;;5090052;28;20107;-76
2021/12/08 12:31:25;;;;;;;50.35;24.42;;;0.70;91.70;;;;;;5092095;28;20028;-73
2021/12/08 12:33:52;;;;;;;57.97;25.98;;;0.70;92.00;;;;;;5092502;28;20489;-74
2021/12/08 12:36:33;;;;;;;61.13;23.83;;;0.80;92.20;;;;;;5091576;28;20115;-74
2021/12/08 12:39:26;;;;;;;57.80;23.30;;;0.80;91.90;;;;;;5074524;28;20077;-76
2021/12/08 12:42:11;;;;;;;50.17;22.42;;;0.90;91.80;;;;;;5092422;28;20119;-74
2021/12/08 12:45:16;;;;;;;57.30;25.98;;;1.00;91.60;;;;;;5092781;28;20496;-76
2021/12/08 12:48:03;;;;;;;53.25;21.10;;;0.90;91.30;;;;;;5075785;28;20060;-75
2021/12/08 12:50:31;;;;;;;51.33;23.45;;;0.90;91.70;;;;;;5091598;28;20067;-76
2021/12/08 12:53:00;;;;;;;57.97;24.27;;;0.90;91.10;;;;;;5093311;28;20035;-78
2021/12/08 12:55:29;;;;;;;57.35;25.08;;;0.80;91.10;;;;;;5087457;28;20024;-78
2021/12/08 12:58:09;;;;;;;60.75;26.08;;;0.80;91.50;;;;;;5092768;28;20096;-79
2021/12/08 13:00:41;;;;;;;49.28;24.73;;;0.70;91.70;;;;;;5092626;28;20044;-76
2021/12/08 13:03:50;;;;;;;61.15;26.25;;;0.70;91.90;;;;;;5092628;28;20024;-80
2021/12/08 13:06:49;;;;;;;62.70;23.52;;;0.70;91.80;;;;;;5090930;28;20060;-78
2021/12/08 13:09:52;;;;;;;55.40;23.08;;;0.70;92.00;;;;;;5111945;28;20024;-78
2021/12/08 13:12:23;;;;;;;53.05;23.77;;;0.70;92.00;;;;;;5110005;28;20039;-80
2021/12/08 13:15:13;;;;;;;60.85;25.27;;;0.60;92.00;;;;;;5114350;28;20047;-80
2021/12/08 13:18:01;;;;;;;60.30;23.70;;;0.60;92.00;;;;;;5117339;28;20503;-79
2021/12/08 13:20:59;;;;;;;55.92;22.85;;;0.60;92.30;;;;;;5115494;28;20491;-78
2021/12/08 13:23:30;;;;;;;57.70;26.37;;;0.60;92.20;;;;;;5116437;28;20516;-75
2021/12/08 13:26:06;;;;;;;57.67;24.08;;;0.50;92.30;;;;;;5114494;28;20035;-75
2021/12/08 13:29:02;;;;;;;56.45;25.70;;;0.50;92.10;;;;;;5114575;28;20129;-81
2021/12/08 13:31:59;;;;;;;54.20;24.25;;;0.50;92.30;;;;;;5115984;27;20102;-76
2021/12/08 13:34:39;;;;;;;58.75;25.27;;;0.50;92.40;;;;;;5114616;28;20027;-75
2021/12/08 13:37:20;;;;;;;59.38;25.50;;;0.40;92.30;;;;;;5114896;28;20027;-76
2021/12/08 13:40:04;;;;;;;49.22;23.00;;;0.40;92.60;;;;;;5116291;28;20108;-75
2021/12/08 13:42:34;;;;;;;56.00;22.70;;;0.40;92.40;;;;;;5116011;28;20039;-76
2021/12/08 13:45:12;;;;;;;62.22;23.92;;;0.40;92.60;;;;;;5116058;28;20419;-77
2021/12/08 13:47:45;;;;;;;57.20;23.33;;;0.40;92.50;;;;;;5116036;28;20050;-77
2021/12/08 13:50:16;;;;;;;55.63;23.80;;;0.40;92.50;;;;;;5116326;27;20023;-76
2021/12/08 13:53:09;;;;;;;59.00;25.05;;;0.40;92.50;;;;;;5114717;28;20119;-75
2021/12/08 13:55:43;;;;;;;50.55;22.42;;;0.40;92.60;;;;;;5114534;28;20063;-77